sensor_id;sensor_type;location;lat;lon;timestamp;P1;durP1;ratioP1;P2;durP2;ratioP2
66609;SDS011;53468;48.276;14.416;2022-10-31T07:46:42;232.52;;;42.90;;
66609;SDS011;53468;48.276;14.416;2022-10-31T07:53:10;341.27;;;48.55;;
66609;SDS011;53468;48.276;14.416;2022-10-31T07:59:21;392.95;;;58.25;;
66609;SDS011;53468;48.276;14.416;2022-10-31T08:05:19;490.00;;;64.13;;
66609;SDS011;53468;48.276;14.416;2022-10-31T08:17:35;423.13;;;55.67;;
66609;SDS011;53468;48.276;14.416;2022-10-31T08:23:22;343.25;;;44.97;;
66609;SDS011;53468;48.276;14.416;2022-10-31T08:29:03;281.63;;;39.60;;
66609;SDS011;53468;48.276;14.416;2022-10-31T08:34:39;211.77;;;35.10;;
66609;SDS011;53468;48.276;14.416;2022-10-31T08:40:13;153.68;;;31.30;;
66609;SDS011;53468;48.276;14.416;2022-10-31T08:45:50;114.82;;;26.50;;
66609;SDS011;53468;48.276;14.416;2022-10-31T08:51:25;120.03;;;25.15;;
66609;SDS011;53468;48.276;14.416;2022-10-31T08:56:59;127.30;;;25.42;;
66609;SDS011;53468;48.276;14.416;2022-10-31T09:02:33;147.32;;;27.08;;
66609;SDS011;53468;48.276;14.416;2022-10-31T09:08:07;123.35;;;25.70;;
66609;SDS011;53468;48.276;14.416;2022-10-31T09:13:40;152.65;;;23.42;;
66609;SDS011;53468;48.276;14.416;2022-10-31T09:19:14;113.88;;;23.10;;
66609;SDS011;53468;48.276;14.416;2022-10-31T09:24:48;71.97;;;19.38;;
66609;SDS011;53468;48.276;14.416;2022-10-31T09:30:21;54.67;;;18.85;;
66609;SDS011;53468;48.276;14.416;2022-10-31T09:35:55;45.38;;;19.42;;
66609;SDS011;53468;48.276;14.416;2022-10-31T09:41:31;39.03;;;18.00;;
66609;SDS011;53468;48.276;14.416;2022-10-31T09:47:21;67.35;;;19.15;;
66609;SDS011;53468;48.276;14.416;2022-10-31T09:53:02;39.70;;;18.25;;
66609;SDS011;53468;48.276;14.416;2022-10-31T09:58:41;42.63;;;19.30;;
66609;SDS011;53468;48.276;14.416;2022-10-31T10:04:20;35.88;;;18.27;;
66609;SDS011;53468;48.276;14.416;2022-10-31T10:10:14;45.60;;;20.65;;
66609;SDS011;53468;48.276;14.416;2022-10-31T10:15:56;38.58;;;18.83;;
66609;SDS011;53468;48.276;14.416;2022-10-31T10:21:45;35.28;;;18.05;;
66609;SDS011;53468;48.276;14.416;2022-10-31T10:27:27;42.25;;;18.92;;
66609;SDS011;53468;48.276;14.416;2022-10-31T10:33:11;42.47;;;20.85;;
66609;SDS011;53468;48.276;14.416;2022-10-31T10:38:48;41.63;;;19.13;;
66609;SDS011;53468;48.276;14.416;2022-10-31T10:44:24;42.70;;;22.13;;
66609;SDS011;53468;48.276;14.416;2022-10-31T10:50:14;36.40;;;19.77;;
66609;SDS011;53468;48.276;14.416;2022-10-31T10:55:51;46.38;;;21.90;;
66609;SDS011;53468;48.276;14.416;2022-10-31T11:01:33;45.92;;;23.60;;
66609;SDS011;53468;48.276;14.416;2022-10-31T11:07:06;46.65;;;23.08;;
66609;SDS011;53468;48.276;14.416;2022-10-31T11:12:41;44.83;;;22.50;;
66609;SDS011;53468;48.276;14.416;2022-10-31T11:18:19;44.90;;;22.10;;
66609;SDS011;53468;48.276;14.416;2022-10-31T11:24:01;43.75;;;23.38;;
66609;SDS011;53468;48.276;14.416;2022-10-31T11:29:35;47.15;;;22.17;;
66609;SDS011;53468;48.276;14.416;2022-10-31T11:35:11;42.17;;;22.70;;
66609;SDS011;53468;48.276;14.416;2022-10-31T11:40:51;47.60;;;23.38;;
66609;SDS011;53468;48.276;14.416;2022-10-31T11:46:30;42.80;;;20.48;;
66609;SDS011;53468;48.276;14.416;2022-10-31T11:52:14;40.15;;;20.83;;
66609;SDS011;53468;48.276;14.416;2022-10-31T11:57:49;41.90;;;20.88;;
66609;SDS011;53468;48.276;14.416;2022-10-31T12:03:28;42.95;;;22.70;;
66609;SDS011;53468;48.276;14.416;2022-10-31T12:09:14;47.15;;;21.42;;
66609;SDS011;53468;48.276;14.416;2022-10-31T12:21:08;42.20;;;22.73;;
66609;SDS011;53468;48.276;14.416;2022-10-31T12:27:02;46.55;;;22.85;;
66609;SDS011;53468;48.276;14.416;2022-10-31T12:32:51;49.92;;;23.15;;
66609;SDS011;53468;48.276;14.416;2022-10-31T12:39:05;35.55;;;20.02;;
66609;SDS011;53468;48.276;14.416;2022-10-31T12:45:03;43.20;;;23.10;;
66609;SDS011;53468;48.276;14.416;2022-10-31T12:50:50;37.83;;;21.60;;
66609;SDS011;53468;48.276;14.416;2022-10-31T12:56:31;44.08;;;22.08;;
66609;SDS011;53468;48.276;14.416;2022-10-31T13:02:20;47.58;;;24.85;;
66609;SDS011;53468;48.276;14.416;2022-10-31T13:07:58;39.00;;;23.00;;
66609;SDS011;53468;48.276;14.416;2022-10-31T13:13:39;49.67;;;23.33;;
66609;SDS011;53468;48.276;14.416;2022-10-31T13:19:19;45.28;;;22.70;;
66609;SDS011;53468;48.276;14.416;2022-10-31T13:24:59;47.47;;;25.63;;
66609;SDS011;53468;48.276;14.416;2022-10-31T13:30:39;53.30;;;26.70;;
66609;SDS011;53468;48.276;14.416;2022-10-31T13:36:21;51.28;;;25.65;;
66609;SDS011;53468;48.276;14.416;2022-10-31T13:42:04;42.13;;;24.48;;
66609;SDS011;53468;48.276;14.416;2022-10-31T13:47:56;47.08;;;25.27;;
66609;SDS011;53468;48.276;14.416;2022-10-31T14:25:36;25.98;;;17.40;;
66609;SDS011;53468;48.276;14.416;2022-10-31T14:31:24;34.35;;;17.55;;
66609;SDS011;53468;48.276;14.416;2022-10-31T14:49:21;27.10;;;17.08;;
66609;SDS011;53468;48.276;14.416;2022-10-31T14:55:07;28.40;;;16.98;;
66609;SDS011;53468;48.276;14.416;2022-10-31T15:00:50;20.48;;;14.48;;
66609;SDS011;53468;48.276;14.416;2022-10-31T15:06:27;24.42;;;15.63;;
66609;SDS011;53468;48.276;14.416;2022-10-31T15:18:03;23.67;;;15.05;;
66609;SDS011;53468;48.276;14.416;2022-10-31T15:23:41;21.73;;;15.63;;
66609;SDS011;53468;48.276;14.416;2022-10-31T15:29:16;27.00;;;15.75;;
66609;SDS011;53468;48.276;14.416;2022-10-31T15:34:52;24.58;;;15.77;;
66609;SDS011;53468;48.276;14.416;2022-10-31T15:47:01;22.80;;;15.50;;
66609;SDS011;53468;48.276;14.416;2022-10-31T15:52:39;32.72;;;19.33;;
66609;SDS011;53468;48.276;14.416;2022-10-31T15:58:18;29.38;;;16.52;;
66609;SDS011;53468;48.276;14.416;2022-10-31T16:04:19;29.73;;;17.35;;
66609;SDS011;53468;48.276;14.416;2022-10-31T19:58:18;19.27;;;11.98;;
